Terminal Aerodrome Forecast
Issued by NWS Upton, NY

Current Version | Previous Version | Text Only | Print | Product List | Glossary On
Versions: 1 2 3 4 5 6 7 8 9 10 11 12 13 14 15 16 17 18 19 20 21 22 23 24 25 26 27 28 29 30 31 32 33 34
000 FTUS41 KOKX 261122 TAFJFK TAF KJFK 261122Z 2612/2718 28009KT P6SM VCSH OVC008 FM261300 28010G15KT P6SM VCSH OVC015 FM261600 27011G18KT P6SM BKN035 FM262000 29011G19KT P6SM BKN035 FM262300 31010KT P6SM SCT035 FM271100 33007KT P6SM SCT050=

USA.gov is the U.S. government's official web portal to all federal, state and local government web resources and services.